sensor_id;sensor_type;location;lat;lon;timestamp;temperature;humidity
20246;DHT22;10281;54.406;18.556;2023-05-07T00:01:21;3.80;99.90
20246;DHT22;10281;54.406;18.556;2023-05-07T00:03:48;3.80;99.90
20246;DHT22;10281;54.406;18.556;2023-05-07T00:06:14;3.80;99.90
20246;DHT22;10281;54.406;18.556;2023-05-07T00:08:41;3.80;99.90
20246;DHT22;10281;54.406;18.556;2023-05-07T00:11:08;3.80;99.90
20246;DHT22;10281;54.406;18.556;2023-05-07T00:13:34;3.80;99.90
20246;DHT22;10281;54.406;18.556;2023-05-07T00:16:02;3.90;99.90
20246;DHT22;10281;54.406;18.556;2023-05-07T00:18:29;3.80;99.90
20246;DHT22;10281;54.406;18.556;2023-05-07T00:20:56;3.80;99.90
20246;DHT22;10281;54.406;18.556;2023-05-07T00:23:23;3.80;99.90
20246;DHT22;10281;54.406;18.556;2023-05-07T00:25:49;3.80;99.90
20246;DHT22;10281;54.406;18.556;2023-05-07T00:28:16;3.70;99.90
20246;DHT22;10281;54.406;18.556;2023-05-07T00:30:43;3.70;99.90
20246;DHT22;10281;54.406;18.556;2023-05-07T00:33:10;3.70;99.90
20246;DHT22;10281;54.406;18.556;2023-05-07T00:35:36;3.70;99.90
20246;DHT22;10281;54.406;18.556;2023-05-07T00:38:03;3.70;99.90
20246;DHT22;10281;54.406;18.556;2023-05-07T00:40:30;3.60;99.90
20246;DHT22;10281;54.406;18.556;2023-05-07T00:42:56;3.60;99.90
20246;DHT22;10281;54.406;18.556;2023-05-07T00:45:27;3.50;99.90
20246;DHT22;10281;54.406;18.556;2023-05-07T00:47:59;3.50;99.90
20246;DHT22;10281;54.406;18.556;2023-05-07T00:50:27;3.50;99.90
20246;DHT22;10281;54.406;18.556;2023-05-07T00:52:55;3.50;99.90
20246;DHT22;10281;54.406;18.556;2023-05-07T00:55:22;3.50;99.90
20246;DHT22;10281;54.406;18.556;2023-05-07T00:57:50;3.50;99.90
20246;DHT22;10281;54.406;18.556;2023-05-07T01:00:17;3.50;99.90
20246;DHT22;10281;54.406;18.556;2023-05-07T01:02:44;3.50;99.90
20246;DHT22;10281;54.406;18.556;2023-05-07T01:05:14;3.40;99.90
20246;DHT22;10281;54.406;18.556;2023-05-07T01:07:42;3.40;99.90
20246;DHT22;10281;54.406;18.556;2023-05-07T01:10:10;3.40;99.90
20246;DHT22;10281;54.406;18.556;2023-05-07T01:12:37;3.30;99.90
20246;DHT22;10281;54.406;18.556;2023-05-07T01:15:06;3.30;99.90
20246;DHT22;10281;54.406;18.556;2023-05-07T01:17:36;3.30;99.90
20246;DHT22;10281;54.406;18.556;2023-05-07T01:20:04;3.20;99.90
20246;DHT22;10281;54.406;18.556;2023-05-07T01:22:35;3.20;99.90
20246;DHT22;10281;54.406;18.556;2023-05-07T01:25:04;3.20;99.90
20246;DHT22;10281;54.406;18.556;2023-05-07T01:27:31;3.20;99.90
20246;DHT22;10281;54.406;18.556;2023-05-07T01:29:59;3.20;99.90
20246;DHT22;10281;54.406;18.556;2023-05-07T01:32:33;3.20;99.90
20246;DHT22;10281;54.406;18.556;2023-05-07T01:35:01;3.10;99.90
20246;DHT22;10281;54.406;18.556;2023-05-07T01:37:29;3.10;99.90
20246;DHT22;10281;54.406;18.556;2023-05-07T01:39:56;3.00;99.90
20246;DHT22;10281;54.406;18.556;2023-05-07T01:42:24;3.00;99.90
20246;DHT22;10281;54.406;18.556;2023-05-07T01:44:50;3.10;99.90
20246;DHT22;10281;54.406;18.556;2023-05-07T01:47:17;3.00;99.90
20246;DHT22;10281;54.406;18.556;2023-05-07T01:49:45;3.00;99.90
20246;DHT22;10281;54.406;18.556;2023-05-07T01:52:13;3.00;99.90
20246;DHT22;10281;54.406;18.556;2023-05-07T01:54:40;3.00;99.90
20246;DHT22;10281;54.406;18.556;2023-05-07T01:57:06;3.00;99.90
20246;DHT22;10281;54.406;18.556;2023-05-07T01:59:33;2.90;99.90
20246;DHT22;10281;54.406;18.556;2023-05-07T02:02:00;2.90;99.90
20246;DHT22;10281;54.406;18.556;2023-05-07T02:04:26;2.90;99.90
20246;DHT22;10281;54.406;18.556;2023-05-07T02:06:53;2.90;99.90
20246;DHT22;10281;54.406;18.556;2023-05-07T02:09:19;2.90;99.90
20246;DHT22;10281;54.406;18.556;2023-05-07T02:11:46;2.80;99.90
20246;DHT22;10281;54.406;18.556;2023-05-07T02:14:13;2.80;99.90
20246;DHT22;10281;54.406;18.556;2023-05-07T02:16:39;2.80;99.90
20246;DHT22;10281;54.406;18.556;2023-05-07T02:19:06;2.70;99.90
20246;DHT22;10281;54.406;18.556;2023-05-07T02:21:32;2.70;99.90
20246;DHT22;10281;54.406;18.556;2023-05-07T02:23:59;2.70;99.90
20246;DHT22;10281;54.406;18.556;2023-05-07T02:26:25;2.70;99.90
20246;DHT22;10281;54.406;18.556;2023-05-07T02:28:52;2.70;99.90
20246;DHT22;10281;54.406;18.556;2023-05-07T02:31:19;2.60;99.90
20246;DHT22;10281;54.406;18.556;2023-05-07T02:33:46;2.60;99.90
20246;DHT22;10281;54.406;18.556;2023-05-07T02:36:12;2.50;99.90
20246;DHT22;10281;54.406;18.556;2023-05-07T02:38:39;2.50;99.90
20246;DHT22;10281;54.406;18.556;2023-05-07T02:41:06;2.50;99.90
20246;DHT22;10281;54.406;18.556;2023-05-07T02:43:32;2.40;99.90
20246;DHT22;10281;54.406;18.556;2023-05-07T02:46:02;2.40;99.90
20246;DHT22;10281;54.406;18.556;2023-05-07T02:48:29;2.40;99.90
20246;DHT22;10281;54.406;18.556;2023-05-07T02:50:56;2.30;99.90
20246;DHT22;10281;54.406;18.556;2023-05-07T02:53:23;2.30;99.90
20246;DHT22;10281;54.406;18.556;2023-05-07T02:55:55;2.30;99.90
20246;DHT22;10281;54.406;18.556;2023-05-07T02:58:22;2.30;99.90
20246;DHT22;10281;54.406;18.556;2023-05-07T03:00:49;2.30;99.90
20246;DHT22;10281;54.406;18.556;2023-05-07T03:03:16;2.30;99.90
20246;DHT22;10281;54.406;18.556;2023-05-07T03:05:43;2.20;99.90
20246;DHT22;10281;54.406;18.556;2023-05-07T03:08:10;2.20;99.90
20246;DHT22;10281;54.406;18.556;2023-05-07T03:10:37;2.20;99.90
20246;DHT22;10281;54.406;18.556;2023-05-07T03:13:03;2.20;99.90
20246;DHT22;10281;54.406;18.556;2023-05-07T03:15:30;2.20;99.90
20246;DHT22;10281;54.406;18.556;2023-05-07T03:17:57;2.20;99.90
20246;DHT22;10281;54.406;18.556;2023-05-07T03:20:24;2.20;99.90
20246;DHT22;10281;54.406;18.556;2023-05-07T03:22:50;2.20;99.90
20246;DHT22;10281;54.406;18.556;2023-05-07T03:25:17;2.10;99.90
20246;DHT22;10281;54.406;18.556;2023-05-07T03:27:43;2.20;99.90
20246;DHT22;10281;54.406;18.556;2023-05-07T03:30:11;2.20;99.90
20246;DHT22;10281;54.406;18.556;2023-05-07T03:32:38;2.20;99.90
20246;DHT22;10281;54.406;18.556;2023-05-07T03:35:06;2.30;99.90
20246;DHT22;10281;54.406;18.556;2023-05-07T03:37:33;2.20;99.90
20246;DHT22;10281;54.406;18.556;2023-05-07T03:39:59;2.20;99.90
20246;DHT22;10281;54.406;18.556;2023-05-07T03:42:26;2.20;99.90
20246;DHT22;10281;54.406;18.556;2023-05-07T03:44:52;2.30;99.90
20246;DHT22;10281;54.406;18.556;2023-05-07T03:47:19;2.30;99.90
20246;DHT22;10281;54.406;18.556;2023-05-07T03:49:46;2.40;99.90
20246;DHT22;10281;54.406;18.556;2023-05-07T03:52:14;2.40;99.90
20246;DHT22;10281;54.406;18.556;2023-05-07T03:54:40;2.40;99.90
20246;DHT22;10281;54.406;18.556;2023-05-07T03:57:07;2.40;99.90
20246;DHT22;10281;54.406;18.556;2023-05-07T03:59:33;2.50;99.90
20246;DHT22;10281;54.406;18.556;2023-05-07T04:02:00;2.50;99.90
20246;DHT22;10281;54.406;18.556;2023-05-07T04:04:27;2.50;99.90
20246;DHT22;10281;54.406;18.556;2023-05-07T04:06:53;2.50;99.90
20246;DHT22;10281;54.406;18.556;2023-05-07T04:09:20;2.60;99.90
20246;DHT22;10281;54.406;18.556;2023-05-07T04:11:46;2.70;99.90
20246;DHT22;10281;54.406;18.556;2023-05-07T04:14:13;2.80;99.90
20246;DHT22;10281;54.406;18.556;2023-05-07T04:16:40;2.80;99.90
20246;DHT22;10281;54.406;18.556;2023-05-07T04:19:06;2.90;99.90
20246;DHT22;10281;54.406;18.556;2023-05-07T04:21:33;3.00;99.90
20246;DHT22;10281;54.406;18.556;2023-05-07T04:23:59;3.20;99.90
20246;DHT22;10281;54.406;18.556;2023-05-07T04:26:26;3.30;99.90
20246;DHT22;10281;54.406;18.556;2023-05-07T04:28:54;3.40;99.90
20246;DHT22;10281;54.406;18.556;2023-05-07T04:31:21;3.50;99.90
20246;DHT22;10281;54.406;18.556;2023-05-07T04:33:47;3.60;99.90
20246;DHT22;10281;54.406;18.556;2023-05-07T04:36:14;3.70;99.90
20246;DHT22;10281;54.406;18.556;2023-05-07T04:38:41;3.90;99.90
20246;DHT22;10281;54.406;18.556;2023-05-07T04:41:09;4.00;99.90
20246;DHT22;10281;54.406;18.556;2023-05-07T04:43:36;4.20;99.90
20246;DHT22;10281;54.406;18.556;2023-05-07T04:46:02;4.30;99.90
20246;DHT22;10281;54.406;18.556;2023-05-07T04:48:29;4.50;99.90
20246;DHT22;10281;54.406;18.556;2023-05-07T04:50:56;4.60;99.90
20246;DHT22;10281;54.406;18.556;2023-05-07T04:53:22;4.80;99.90
20246;DHT22;10281;54.406;18.556;2023-05-07T04:55:54;4.90;99.90
20246;DHT22;10281;54.406;18.556;2023-05-07T04:58:18;5.10;99.90
20246;DHT22;10281;54.406;18.556;2023-05-07T05:00:44;5.20;99.90
20246;DHT22;10281;54.406;18.556;2023-05-07T05:03:11;5.40;99.90
20246;DHT22;10281;54.406;18.556;2023-05-07T05:05:37;5.60;99.90
20246;DHT22;10281;54.406;18.556;2023-05-07T05:08:04;5.70;99.90
20246;DHT22;10281;54.406;18.556;2023-05-07T05:10:31;6.00;99.90
20246;DHT22;10281;54.406;18.556;2023-05-07T05:12:57;6.10;99.90
20246;DHT22;10281;54.406;18.556;2023-05-07T05:15:24;6.30;99.90
20246;DHT22;10281;54.406;18.556;2023-05-07T05:17:50;6.50;99.90
20246;DHT22;10281;54.406;18.556;2023-05-07T05:20:17;6.60;99.90
20246;DHT22;10281;54.406;18.556;2023-05-07T05:22:44;6.80;99.90
20246;DHT22;10281;54.406;18.556;2023-05-07T05:25:11;7.00;99.90
20246;DHT22;10281;54.406;18.556;2023-05-07T05:27:37;7.10;99.90
20246;DHT22;10281;54.406;18.556;2023-05-07T05:30:04;7.30;99.90
20246;DHT22;10281;54.406;18.556;2023-05-07T05:32:31;7.50;99.90
20246;DHT22;10281;54.406;18.556;2023-05-07T05:34:58;7.70;99.90
20246;DHT22;10281;54.406;18.556;2023-05-07T05:37:25;7.90;99.90
20246;DHT22;10281;54.406;18.556;2023-05-07T05:39:52;8.10;99.90
20246;DHT22;10281;54.406;18.556;2023-05-07T05:42:20;8.30;99.90
20246;DHT22;10281;54.406;18.556;2023-05-07T05:44:47;8.50;99.90
20246;DHT22;10281;54.406;18.556;2023-05-07T05:47:14;8.60;99.90
20246;DHT22;10281;54.406;18.556;2023-05-07T05:49:40;8.80;99.90
20246;DHT22;10281;54.406;18.556;2023-05-07T05:52:11;8.90;99.90
20246;DHT22;10281;54.406;18.556;2023-05-07T05:54:38;9.10;99.90
20246;DHT22;10281;54.406;18.556;2023-05-07T05:57:05;9.30;99.90
20246;DHT22;10281;54.406;18.556;2023-05-07T05:59:32;9.40;99.90
20246;DHT22;10281;54.406;18.556;2023-05-07T06:01:58;9.50;99.90
20246;DHT22;10281;54.406;18.556;2023-05-07T06:04:25;9.60;99.90
20246;DHT22;10281;54.406;18.556;2023-05-07T06:06:52;9.60;99.90
20246;DHT22;10281;54.406;18.556;2023-05-07T06:09:18;9.60;99.90
20246;DHT22;10281;54.406;18.556;2023-05-07T06:11:45;9.70;99.90
20246;DHT22;10281;54.406;18.556;2023-05-07T06:14:12;9.80;99.90
20246;DHT22;10281;54.406;18.556;2023-05-07T06:16:39;9.80;99.90
20246;DHT22;10281;54.406;18.556;2023-05-07T06:19:05;9.90;99.90
20246;DHT22;10281;54.406;18.556;2023-05-07T06:21:32;9.90;99.90
20246;DHT22;10281;54.406;18.556;2023-05-07T06:23:59;10.00;99.90
20246;DHT22;10281;54.406;18.556;2023-05-07T06:26:25;10.00;99.90
20246;DHT22;10281;54.406;18.556;2023-05-07T06:28:52;10.00;99.90
20246;DHT22;10281;54.406;18.556;2023-05-07T06:31:19;10.00;99.90
20246;DHT22;10281;54.406;18.556;2023-05-07T06:33:46;10.10;99.90
20246;DHT22;10281;54.406;18.556;2023-05-07T06:36:13;10.00;99.90
20246;DHT22;10281;54.406;18.556;2023-05-07T06:38:40;10.10;99.90
20246;DHT22;10281;54.406;18.556;2023-05-07T06:41:06;10.00;99.90
20246;DHT22;10281;54.406;18.556;2023-05-07T06:43:33;10.10;99.90
20246;DHT22;10281;54.406;18.556;2023-05-07T06:46:00;10.10;99.90
20246;DHT22;10281;54.406;18.556;2023-05-07T06:48:26;10.20;99.90
20246;DHT22;10281;54.406;18.556;2023-05-07T06:50:53;10.20;99.90
20246;DHT22;10281;54.406;18.556;2023-05-07T06:53:21;10.20;99.90
20246;DHT22;10281;54.406;18.556;2023-05-07T06:55:48;10.30;99.90
20246;DHT22;10281;54.406;18.556;2023-05-07T06:58:14;10.30;99.90
20246;DHT22;10281;54.406;18.556;2023-05-07T07:00:41;10.30;99.90
20246;DHT22;10281;54.406;18.556;2023-05-07T07:03:08;10.30;99.90
20246;DHT22;10281;54.406;18.556;2023-05-07T07:05:34;10.30;99.90
20246;DHT22;10281;54.406;18.556;2023-05-07T07:08:01;10.40;99.90
20246;DHT22;10281;54.406;18.556;2023-05-07T07:10:28;10.30;99.90
20246;DHT22;10281;54.406;18.556;2023-05-07T07:12:54;10.30;99.90
20246;DHT22;10281;54.406;18.556;2023-05-07T07:15:21;10.30;99.90
20246;DHT22;10281;54.406;18.556;2023-05-07T07:17:48;10.30;99.90
20246;DHT22;10281;54.406;18.556;2023-05-07T07:20:15;10.30;99.90
20246;DHT22;10281;54.406;18.556;2023-05-07T07:22:42;10.30;99.90
20246;DHT22;10281;54.406;18.556;2023-05-07T07:25:09;10.30;99.90
20246;DHT22;10281;54.406;18.556;2023-05-07T07:27:36;10.40;99.90
20246;DHT22;10281;54.406;18.556;2023-05-07T07:30:05;10.40;99.90
20246;DHT22;10281;54.406;18.556;2023-05-07T07:32:32;10.40;99.90
20246;DHT22;10281;54.406;18.556;2023-05-07T07:34:59;10.50;99.90
20246;DHT22;10281;54.406;18.556;2023-05-07T07:37:26;10.50;99.90
20246;DHT22;10281;54.406;18.556;2023-05-07T07:39:52;10.50;99.90
20246;DHT22;10281;54.406;18.556;2023-05-07T07:42:19;10.60;99.90
20246;DHT22;10281;54.406;18.556;2023-05-07T07:44:46;10.60;99.90
20246;DHT22;10281;54.406;18.556;2023-05-07T07:47:13;10.60;99.90
20246;DHT22;10281;54.406;18.556;2023-05-07T07:49:39;10.60;99.90
20246;DHT22;10281;54.406;18.556;2023-05-07T07:52:06;10.60;99.90
20246;DHT22;10281;54.406;18.556;2023-05-07T07:54:32;10.60;99.90
20246;DHT22;10281;54.406;18.556;2023-05-07T07:56:59;10.70;99.90
20246;DHT22;10281;54.406;18.556;2023-05-07T07:59:27;10.70;99.90
20246;DHT22;10281;54.406;18.556;2023-05-07T08:01:53;10.80;99.90
20246;DHT22;10281;54.406;18.556;2023-05-07T08:04:22;10.80;99.90
20246;DHT22;10281;54.406;18.556;2023-05-07T08:06:49;10.80;99.90
20246;DHT22;10281;54.406;18.556;2023-05-07T08:09:16;10.80;99.90
20246;DHT22;10281;54.406;18.556;2023-05-07T08:11:42;10.80;99.90
20246;DHT22;10281;54.406;18.556;2023-05-07T08:14:09;10.90;99.90
20246;DHT22;10281;54.406;18.556;2023-05-07T08:16:36;10.90;99.90
20246;DHT22;10281;54.406;18.556;2023-05-07T08:19:02;11.00;99.90
20246;DHT22;10281;54.406;18.556;2023-05-07T08:21:29;11.00;99.90
20246;DHT22;10281;54.406;18.556;2023-05-07T08:23:56;11.10;99.90
20246;DHT22;10281;54.406;18.556;2023-05-07T08:26:23;11.10;99.90
20246;DHT22;10281;54.406;18.556;2023-05-07T08:28:50;11.20;99.90
20246;DHT22;10281;54.406;18.556;2023-05-07T08:31:16;11.30;99.90
20246;DHT22;10281;54.406;18.556;2023-05-07T08:33:43;11.30;99.90
20246;DHT22;10281;54.406;18.556;2023-05-07T08:36:09;11.40;99.90
20246;DHT22;10281;54.406;18.556;2023-05-07T08:38:36;11.40;99.90
20246;DHT22;10281;54.406;18.556;2023-05-07T08:41:03;11.30;99.90
20246;DHT22;10281;54.406;18.556;2023-05-07T08:43:31;11.40;99.90
20246;DHT22;10281;54.406;18.556;2023-05-07T08:46:01;11.40;99.90
20246;DHT22;10281;54.406;18.556;2023-05-07T08:48:29;11.40;99.90
20246;DHT22;10281;54.406;18.556;2023-05-07T08:50:58;11.40;99.90
20246;DHT22;10281;54.406;18.556;2023-05-07T08:53:25;11.40;99.90
20246;DHT22;10281;54.406;18.556;2023-05-07T08:55:52;11.40;99.90
20246;DHT22;10281;54.406;18.556;2023-05-07T08:58:19;11.50;99.90
20246;DHT22;10281;54.406;18.556;2023-05-07T09:00:46;11.50;99.90
20246;DHT22;10281;54.406;18.556;2023-05-07T09:03:13;11.50;99.90
20246;DHT22;10281;54.406;18.556;2023-05-07T09:05:40;11.60;99.90
20246;DHT22;10281;54.406;18.556;2023-05-07T09:08:07;11.40;99.90
20246;DHT22;10281;54.406;18.556;2023-05-07T09:10:34;11.40;99.90
20246;DHT22;10281;54.406;18.556;2023-05-07T09:13:02;11.40;99.90
20246;DHT22;10281;54.406;18.556;2023-05-07T09:15:30;11.40;99.90
20246;DHT22;10281;54.406;18.556;2023-05-07T09:17:59;11.30;99.90
20246;DHT22;10281;54.406;18.556;2023-05-07T09:20:29;11.40;99.90
20246;DHT22;10281;54.406;18.556;2023-05-07T09:22:56;11.30;99.90
20246;DHT22;10281;54.406;18.556;2023-05-07T09:25:30;11.40;99.90
20246;DHT22;10281;54.406;18.556;2023-05-07T09:27:57;11.30;99.90
20246;DHT22;10281;54.406;18.556;2023-05-07T09:30:27;11.40;99.90
20246;DHT22;10281;54.406;18.556;2023-05-07T09:32:56;11.40;99.90
20246;DHT22;10281;54.406;18.556;2023-05-07T09:35:22;11.30;99.90
20246;DHT22;10281;54.406;18.556;2023-05-07T09:37:53;11.30;99.90
20246;DHT22;10281;54.406;18.556;2023-05-07T09:40:23;11.40;99.90
20246;DHT22;10281;54.406;18.556;2023-05-07T09:42:50;11.50;99.90
20246;DHT22;10281;54.406;18.556;2023-05-07T09:45:22;11.60;99.90
20246;DHT22;10281;54.406;18.556;2023-05-07T09:47:53;11.70;99.90
20246;DHT22;10281;54.406;18.556;2023-05-07T09:50:19;11.60;99.90
20246;DHT22;10281;54.406;18.556;2023-05-07T09:52:48;11.60;99.90
20246;DHT22;10281;54.406;18.556;2023-05-07T09:55:15;11.60;99.90
20246;DHT22;10281;54.406;18.556;2023-05-07T09:57:43;11.70;99.90
20246;DHT22;10281;54.406;18.556;2023-05-07T10:00:11;11.60;99.20
20246;DHT22;10281;54.406;18.556;2023-05-07T10:02:39;11.50;99.70
20246;DHT22;10281;54.406;18.556;2023-05-07T10:05:09;11.50;99.70
20246;DHT22;10281;54.406;18.556;2023-05-07T10:07:36;11.50;98.30
20246;DHT22;10281;54.406;18.556;2023-05-07T10:10:03;11.60;99.10
20246;DHT22;10281;54.406;18.556;2023-05-07T10:12:31;11.60;99.30
20246;DHT22;10281;54.406;18.556;2023-05-07T10:15:00;11.70;98.80
20246;DHT22;10281;54.406;18.556;2023-05-07T10:17:26;11.60;98.20
20246;DHT22;10281;54.406;18.556;2023-05-07T10:19:54;11.60;97.10
20246;DHT22;10281;54.406;18.556;2023-05-07T10:22:21;11.70;98.40
20246;DHT22;10281;54.406;18.556;2023-05-07T10:24:50;11.80;99.30
20246;DHT22;10281;54.406;18.556;2023-05-07T10:27:21;11.90;98.20
20246;DHT22;10281;54.406;18.556;2023-05-07T10:30:08;11.90;99.00
20246;DHT22;10281;54.406;18.556;2023-05-07T10:32:40;12.00;98.50
20246;DHT22;10281;54.406;18.556;2023-05-07T10:35:14;12.00;99.00
20246;DHT22;10281;54.406;18.556;2023-05-07T10:37:39;12.00;98.90
20246;DHT22;10281;54.406;18.556;2023-05-07T10:40:07;12.10;99.90
20246;DHT22;10281;54.406;18.556;2023-05-07T10:42:35;12.10;99.90
20246;DHT22;10281;54.406;18.556;2023-05-07T10:45:18;12.10;99.90
20246;DHT22;10281;54.406;18.556;2023-05-07T10:50:23;12.30;99.90
20246;DHT22;10281;54.406;18.556;2023-05-07T10:55:24;12.30;99.90
20246;DHT22;10281;54.406;18.556;2023-05-07T10:57:51;12.30;99.90
20246;DHT22;10281;54.406;18.556;2023-05-07T11:00:41;12.30;99.90
20246;DHT22;10281;54.406;18.556;2023-05-07T11:03:08;12.30;99.90
20246;DHT22;10281;54.406;18.556;2023-05-07T11:05:35;12.30;99.90
20246;DHT22;10281;54.406;18.556;2023-05-07T11:08:04;12.30;99.90
20246;DHT22;10281;54.406;18.556;2023-05-07T11:13:09;12.10;99.90
20246;DHT22;10281;54.406;18.556;2023-05-07T11:15:39;11.90;99.90
20246;DHT22;10281;54.406;18.556;2023-05-07T11:18:07;11.90;99.90
20246;DHT22;10281;54.406;18.556;2023-05-07T11:20:45;11.80;99.90
20246;DHT22;10281;54.406;18.556;2023-05-07T11:25:57;12.00;99.90
20246;DHT22;10281;54.406;18.556;2023-05-07T11:28:22;12.00;99.90
20246;DHT22;10281;54.406;18.556;2023-05-07T11:30:49;12.00;99.90
20246;DHT22;10281;54.406;18.556;2023-05-07T11:33:17;12.10;99.90
20246;DHT22;10281;54.406;18.556;2023-05-07T11:35:45;12.10;99.90
20246;DHT22;10281;54.406;18.556;2023-05-07T11:38:13;12.20;99.90
20246;DHT22;10281;54.406;18.556;2023-05-07T11:40:52;12.20;99.90
20246;DHT22;10281;54.406;18.556;2023-05-07T11:43:19;12.20;99.90
20246;DHT22;10281;54.406;18.556;2023-05-07T11:45:46;12.20;99.90
20246;DHT22;10281;54.406;18.556;2023-05-07T11:48:21;12.20;99.90
20246;DHT22;10281;54.406;18.556;2023-05-07T11:50:53;12.30;99.90
20246;DHT22;10281;54.406;18.556;2023-05-07T11:53:24;12.30;99.70
20246;DHT22;10281;54.406;18.556;2023-05-07T11:55:52;12.40;99.60
20246;DHT22;10281;54.406;18.556;2023-05-07T11:58:22;12.40;98.20
20246;DHT22;10281;54.406;18.556;2023-05-07T12:00:50;12.40;99.20
20246;DHT22;10281;54.406;18.556;2023-05-07T12:03:17;12.50;98.60
20246;DHT22;10281;54.406;18.556;2023-05-07T12:05:46;12.50;99.30
20246;DHT22;10281;54.406;18.556;2023-05-07T12:08:15;12.60;98.10
20246;DHT22;10281;54.406;18.556;2023-05-07T12:10:42;12.60;96.80
20246;DHT22;10281;54.406;18.556;2023-05-07T12:13:17;12.70;97.20
20246;DHT22;10281;54.406;18.556;2023-05-07T12:15:43;12.70;97.50
20246;DHT22;10281;54.406;18.556;2023-05-07T12:18:11;12.80;98.10
20246;DHT22;10281;54.406;18.556;2023-05-07T12:20:39;12.80;98.00
20246;DHT22;10281;54.406;18.556;2023-05-07T12:23:06;12.80;98.50
20246;DHT22;10281;54.406;18.556;2023-05-07T12:25:35;12.80;97.40
20246;DHT22;10281;54.406;18.556;2023-05-07T12:28:03;12.80;97.50
20246;DHT22;10281;54.406;18.556;2023-05-07T12:30:36;12.60;97.90
20246;DHT22;10281;54.406;18.556;2023-05-07T12:33:01;12.60;98.30
20246;DHT22;10281;54.406;18.556;2023-05-07T12:35:32;12.50;98.70
20246;DHT22;10281;54.406;18.556;2023-05-07T12:37:59;12.50;99.80
20246;DHT22;10281;54.406;18.556;2023-05-07T12:40:38;12.50;99.90
20246;DHT22;10281;54.406;18.556;2023-05-07T12:43:05;12.50;99.40
20246;DHT22;10281;54.406;18.556;2023-05-07T12:45:36;12.50;98.50
20246;DHT22;10281;54.406;18.556;2023-05-07T12:48:04;12.40;99.60
20246;DHT22;10281;54.406;18.556;2023-05-07T12:50:32;12.30;99.90
20246;DHT22;10281;54.406;18.556;2023-05-07T12:53:00;12.20;99.90
20246;DHT22;10281;54.406;18.556;2023-05-07T12:55:26;12.00;98.90
20246;DHT22;10281;54.406;18.556;2023-05-07T12:57:55;11.90;99.50
20246;DHT22;10281;54.406;18.556;2023-05-07T13:00:39;12.00;99.50
20246;DHT22;10281;54.406;18.556;2023-05-07T13:03:05;12.00;99.60
20246;DHT22;10281;54.406;18.556;2023-05-07T13:05:32;12.10;99.50
20246;DHT22;10281;54.406;18.556;2023-05-07T13:07:59;12.00;99.90
20246;DHT22;10281;54.406;18.556;2023-05-07T13:10:27;11.90;99.70
20246;DHT22;10281;54.406;18.556;2023-05-07T13:12:54;11.90;99.10
20246;DHT22;10281;54.406;18.556;2023-05-07T13:15:21;11.80;98.30
20246;DHT22;10281;54.406;18.556;2023-05-07T13:17:48;11.80;98.00
20246;DHT22;10281;54.406;18.556;2023-05-07T13:20:14;11.80;98.30
20246;DHT22;10281;54.406;18.556;2023-05-07T13:22:41;11.90;98.50
20246;DHT22;10281;54.406;18.556;2023-05-07T13:25:08;12.00;97.30
20246;DHT22;10281;54.406;18.556;2023-05-07T13:27:35;12.00;98.60
20246;DHT22;10281;54.406;18.556;2023-05-07T13:30:04;11.90;95.30
20246;DHT22;10281;54.406;18.556;2023-05-07T13:32:31;11.90;96.50
20246;DHT22;10281;54.406;18.556;2023-05-07T13:34:58;11.90;97.30
20246;DHT22;10281;54.406;18.556;2023-05-07T13:37:25;12.00;97.50
20246;DHT22;10281;54.406;18.556;2023-05-07T13:39:51;11.90;98.60
20246;DHT22;10281;54.406;18.556;2023-05-07T13:42:18;11.90;96.80
20246;DHT22;10281;54.406;18.556;2023-05-07T13:44:45;11.80;97.00
20246;DHT22;10281;54.406;18.556;2023-05-07T13:47:12;11.90;97.80
20246;DHT22;10281;54.406;18.556;2023-05-07T13:49:38;11.90;96.60
20246;DHT22;10281;54.406;18.556;2023-05-07T13:52:05;11.90;97.00
20246;DHT22;10281;54.406;18.556;2023-05-07T13:54:31;11.90;98.00
20246;DHT22;10281;54.406;18.556;2023-05-07T13:56:58;11.90;98.00
20246;DHT22;10281;54.406;18.556;2023-05-07T13:59:25;11.90;98.00
20246;DHT22;10281;54.406;18.556;2023-05-07T14:01:51;11.90;97.80
20246;DHT22;10281;54.406;18.556;2023-05-07T14:04:18;12.00;96.60
20246;DHT22;10281;54.406;18.556;2023-05-07T14:06:44;12.00;96.50
20246;DHT22;10281;54.406;18.556;2023-05-07T14:09:11;11.90;95.40
20246;DHT22;10281;54.406;18.556;2023-05-07T14:11:39;11.90;94.90
20246;DHT22;10281;54.406;18.556;2023-05-07T14:14:06;11.90;95.10
20246;DHT22;10281;54.406;18.556;2023-05-07T14:16:32;11.90;95.30
20246;DHT22;10281;54.406;18.556;2023-05-07T14:18:59;11.90;95.70
20246;DHT22;10281;54.406;18.556;2023-05-07T14:21:25;11.80;95.10
20246;DHT22;10281;54.406;18.556;2023-05-07T14:23:52;11.80;95.20
20246;DHT22;10281;54.406;18.556;2023-05-07T14:26:19;11.80;95.80
20246;DHT22;10281;54.406;18.556;2023-05-07T14:28:46;11.80;95.40
20246;DHT22;10281;54.406;18.556;2023-05-07T14:31:13;11.90;95.60
20246;DHT22;10281;54.406;18.556;2023-05-07T14:33:39;11.90;95.60
20246;DHT22;10281;54.406;18.556;2023-05-07T14:36:06;11.90;95.30
20246;DHT22;10281;54.406;18.556;2023-05-07T14:38:33;11.90;92.10
20246;DHT22;10281;54.406;18.556;2023-05-07T14:40:59;11.80;94.30
20246;DHT22;10281;54.406;18.556;2023-05-07T14:43:26;11.80;94.40
20246;DHT22;10281;54.406;18.556;2023-05-07T14:45:53;11.70;94.30
20246;DHT22;10281;54.406;18.556;2023-05-07T14:48:20;11.70;94.50
20246;DHT22;10281;54.406;18.556;2023-05-07T14:50:48;11.60;94.70
20246;DHT22;10281;54.406;18.556;2023-05-07T14:53:15;11.70;93.90
20246;DHT22;10281;54.406;18.556;2023-05-07T14:55:42;11.60;94.80
20246;DHT22;10281;54.406;18.556;2023-05-07T14:58:08;11.60;95.00
20246;DHT22;10281;54.406;18.556;2023-05-07T15:00:35;11.70;95.30
20246;DHT22;10281;54.406;18.556;2023-05-07T15:03:06;11.70;94.70
20246;DHT22;10281;54.406;18.556;2023-05-07T15:05:33;11.70;95.00
20246;DHT22;10281;54.406;18.556;2023-05-07T15:08:00;11.60;94.60
20246;DHT22;10281;54.406;18.556;2023-05-07T15:10:27;11.60;94.90
20246;DHT22;10281;54.406;18.556;2023-05-07T15:12:53;11.50;95.10
20246;DHT22;10281;54.406;18.556;2023-05-07T15:15:20;11.50;95.10
20246;DHT22;10281;54.406;18.556;2023-05-07T15:17:47;11.50;94.90
20246;DHT22;10281;54.406;18.556;2023-05-07T15:20:14;11.50;95.10
20246;DHT22;10281;54.406;18.556;2023-05-07T15:22:40;11.60;95.60
20246;DHT22;10281;54.406;18.556;2023-05-07T15:25:08;11.60;95.00
20246;DHT22;10281;54.406;18.556;2023-05-07T15:27:35;11.70;95.30
20246;DHT22;10281;54.406;18.556;2023-05-07T15:30:01;11.70;95.00
20246;DHT22;10281;54.406;18.556;2023-05-07T15:32:28;11.70;95.30
20246;DHT22;10281;54.406;18.556;2023-05-07T15:34:55;11.70;95.70